Terminal Aerodrome Forecast
Issued by NWS

Current Version | Previous Version | Graphics & Text | Print | Product List | Glossary On
Versions: 1 2 3 4 5 6 7 8 9 10 11 12 13 14 15 16
000
FTUS41 KILN 271700 RRA
TAFLCK
TAF
KLCK 271756Z 2718/2818 19010KT P6SM BKN050
     FM272100 20010KT 6SM BR VCSH BKN025 OVC030
      TEMPO 2721/2801 3SM -SHRA OVC012
     FM280100 25009KT 4SM BR VCSH SCT007 OVC012
     FM280400 30010KT 4SM -SHRA BR BKN007 OVC020
     FM281000 31007KT 3SM -SHRA BR OVC007
     FM281500 29010KT P6SM VCSH OVC015=

USA.gov is the U.S. government's official web portal to all federal, state and local government web resources and services.